Aleksandrov-Gaj, Russia
Current Conditions -  °F | °C
As of 7:30 AM on Thursday 23 Oct 2014 (Local Time) from UWSS Reporting Station
Overcast Overcast  
Wind Chill:   Ceiling: 2200
Heat Index: 21°   Visibility: 6mi
Dew Point: 14°   Wind: 13mph
Humidity: 74%   Direction: 300°WNW
Pressure: 29.97"   Gusts: 20mph
Location:  50.15°N, 48.57°E
Report Text: UWSS 230430Z 30006G09MPS 9999 OVC022CB M06/M10 Q1015 300///60NOSIG RMK QFE748
Loading
Personal Weather Stations






























Interactive Weather Map
Tropical Storm Tracking
New forecast layout! Learn more

10-Day Weather Forecast

Advertisements
Track Severe Weather on mobile